KMHV/MHV METAR and TAF weather

Enter ICAO airport designator
Station Type Date Time Source
KMHV METAR 2019/10/22 17:00 UTC NOAA

KMHV 221700Z AUTO 00000KT 10SM CLR 21/M03 A3028 RMK A01


Station Type Date Time Source
KMHV Decoded METAR 2019/10/22 17:00 UTC NOAA

Mojave, CA, United States (KMHV) 35-04N 118-09W
Oct 22, 2019 - 01:00 PM EDT / 2019.10.22 1700 UTC
Wind: Calm:0
Visibility: 10 mile(s):0
Sky conditions: clear
Temperature: 69 F (21 C)
Dew Point: 26 F (-3 C)
Relative Humidity: 19%
Pressure (altimeter): 30.28 in. Hg (1025 hPa)
ob: KMHV 221700Z AUTO 00000KT 10SM CLR 21/M03 A3028 RMK A01
cycle: 17

Station Type Date Time Source
KMHV TAF UTC NOAA

Error!

Example: see airport list